Time;durP1;ratioP1;P1;durP2;ratioP2;P2;SDS_P1;SDS_P2;PMS_P1;PMS_P2;Temp;Humidity;BMP_temperature;BMP_pressure;BME280_temperature;BME280_humidity;BME280_pressure;Samples;Min_cycle;Max_cycle;Signal;HPM_P1;HPM_P2
2021/10/04 12:42:01;;;;;;;;;;;20.90;99.90;;;;;;5008344;27;4177088;-63
2021/10/04 12:44:35;;;;;;;;;;;19.40;99.90;;;;;;5147272;27;1074;-64
2021/10/04 12:47:20;;;;;;;;;;;19.20;99.90;;;;;;5148687;27;940;-61
2021/10/04 12:49:57;;;;;;;;;;;19.20;99.90;;;;;;5154723;27;868;-60
2021/10/04 12:52:25;;;;;;;;;;;19.00;99.90;;;;;;5150536;27;1331;-61
2021/10/04 12:54:53;;;;;;;;;;;18.90;99.90;;;;;;5140715;27;1308;-60
2021/10/04 12:57:23;;;;;;;;;;;18.90;99.90;;;;;;5147892;27;1034;-60
2021/10/04 13:00:01;;;;;;;;;;;18.70;99.90;;;;;;5097063;27;1910;-60
2021/10/04 13:02:31;;;;;;;;;;;18.60;99.90;;;;;;5147591;27;1217;-60
2021/10/04 13:04:57;;;;;;;;;;;18.50;99.90;;;;;;5153342;27;792;-59
2021/10/04 13:07:27;;;;;;;;;;;18.50;99.90;;;;;;5136518;27;794;-60
2021/10/04 13:09:53;;;;;;;;;;;18.30;99.90;;;;;;5135871;27;954;-60
2021/10/04 13:12:23;;;;;;;;;;;18.20;99.90;;;;;;5154179;27;752;-59
2021/10/04 13:14:49;;;;;;;;;;;18.10;99.90;;;;;;5118961;27;1252;-60
2021/10/04 13:17:14;;;;;;;;;;;18.10;99.90;;;;;;5153745;27;709;-66
2021/10/04 13:19:41;;;;;;;;;;;18.00;99.90;;;;;;5153852;27;1963;-60
2021/10/04 13:22:07;;;;;;;;;;;18.00;99.90;;;;;;5154137;27;962;-60
2021/10/04 13:24:35;;;;;;;;;;;17.90;99.90;;;;;;5117981;27;881;-59
2021/10/04 13:27:01;;;;;;;;;;;17.90;99.90;;;;;;5117891;27;976;-60
2021/10/04 13:29:28;;;;;;;;;;;17.90;99.90;;;;;;5135169;27;873;-60
2021/10/04 13:31:55;;;;;;;;;;;17.80;99.90;;;;;;5135733;27;737;-59
2021/10/04 13:34:21;;;;;;;;;;;17.80;99.90;;;;;;5076709;28;960;-59
2021/10/04 13:36:48;;;;;;;;;;;17.80;99.90;;;;;;5077010;28;908;-59
2021/10/04 13:39:14;;;;;;;;;;;17.80;99.90;;;;;;5110891;28;821;-60
2021/10/04 13:41:41;;;;;;;;;;;17.80;99.90;;;;;;5110432;28;1953;-60
2021/10/04 13:44:08;;;;;;;;;;;17.80;99.90;;;;;;5110373;28;891;-60
2021/10/04 13:46:36;;;;;;;;;;;17.80;99.90;;;;;;5110514;28;755;-60
2021/10/04 13:49:02;;;;;;;;;;;17.80;99.90;;;;;;5110676;28;831;-59
2021/10/04 13:51:30;;;;;;;;;;;17.80;99.90;;;;;;5107470;28;911;-60
2021/10/04 13:53:56;;;;;;;;;;;17.80;99.90;;;;;;5096942;28;825;-59
2021/10/04 13:56:22;;;;;;;;;;;17.80;99.90;;;;;;5096940;28;846;-66
2021/10/04 13:58:48;;;;;;;;;;;17.70;99.90;;;;;;5097000;28;902;-66
2021/10/04 14:01:14;;;;;;;;;;;17.70;99.90;;;;;;5079386;28;1911;-66
2021/10/04 14:03:39;;;;;;;;;;;17.70;99.90;;;;;;5096674;28;746;-66
2021/10/04 14:06:06;;;;;;;;;;;17.70;99.90;;;;;;5132268;27;800;-66
2021/10/04 14:08:33;;;;;;;;;;;17.70;99.90;;;;;;5103708;27;996;-66
2021/10/04 14:10:59;;;;;;;;;;;17.60;99.90;;;;;;5139055;27;1459;-66
2021/10/04 14:13:25;;;;;;;;;;;17.60;99.90;;;;;;5139411;27;1050;-66
2021/10/04 14:15:50;;;;;;;;;;;17.60;99.90;;;;;;5120663;27;1522;-66
2021/10/04 14:18:16;;;;;;;;;;;17.60;99.90;;;;;;5139038;27;780;-66
2021/10/04 14:20:43;;;;;;;;;;;17.60;99.90;;;;;;5139202;27;1964;-66
2021/10/04 14:23:09;;;;;;;;;;;17.60;99.90;;;;;;5138980;27;808;-60
2021/10/04 14:25:36;;;;;;;;;;;17.50;99.90;;;;;;5139026;27;856;-59
2021/10/04 14:28:03;;;;;;;;;;;17.50;99.90;;;;;;5138947;27;853;-59
2021/10/04 14:30:31;;;;;;;;;;;17.50;99.90;;;;;;5138949;27;863;-59
2021/10/04 14:32:57;;;;;;;;;;;17.50;99.90;;;;;;5138765;27;826;-59
2021/10/04 14:35:23;;;;;;;;;;;17.50;99.90;;;;;;5138847;27;848;-60
2021/10/04 14:37:52;;;;;;;;;;;17.50;99.90;;;;;;5138761;27;847;-60
2021/10/04 14:40:24;;;;;;;;;;;17.50;99.90;;;;;;5132262;27;1981;-59
2021/10/04 14:42:52;;;;;;;;;;;17.40;99.90;;;;;;5139101;27;812;-60
2021/10/04 14:45:18;;;;;;;;;;;17.40;99.90;;;;;;5138598;27;971;-60
2021/10/04 14:47:44;;;;;;;;;;;17.40;99.90;;;;;;5138478;27;811;-60
2021/10/04 14:50:13;;;;;;;;;;;17.40;99.90;;;;;;5138540;27;855;-59
2021/10/04 14:52:40;;;;;;;;;;;17.40;99.90;;;;;;5138858;27;869;-59
2021/10/04 14:55:11;;;;;;;;;;;17.30;99.90;;;;;;5134990;27;1166;-59
2021/10/04 14:57:38;;;;;;;;;;;17.30;99.90;;;;;;5103223;27;985;-59
2021/10/04 15:00:05;;;;;;;;;;;17.30;99.90;;;;;;5138032;27;1952;-60
2021/10/04 15:02:32;;;;;;;;;;;17.30;99.90;;;;;;5102958;27;1222;-59
2021/10/04 15:04:58;;;;;;;;;;;17.30;99.90;;;;;;5137307;27;792;-60
2021/10/04 15:07:24;;;;;;;;;;;17.30;99.90;;;;;;5138363;27;891;-60
2021/10/04 15:09:51;;;;;;;;;;;17.20;99.90;;;;;;5096167;27;949;-59
2021/10/04 15:12:18;;;;;;;;;;;17.20;99.90;;;;;;5075259;28;1285;-59
2021/10/04 15:14:44;;;;;;;;;;;17.30;99.90;;;;;;5068743;28;890;-59
2021/10/04 15:17:11;;;;;;;;;;;17.20;99.90;;;;;;5074619;28;834;-60
2021/10/04 15:19:37;;;;;;;;;;;17.20;99.90;;;;;;5074904;28;1894;-59
2021/10/04 15:22:03;;;;;;;;;;;17.20;99.90;;;;;;5075144;28;787;-59
2021/10/04 15:24:30;;;;;;;;;;;17.20;99.90;;;;;;5074718;28;1113;-59
2021/10/04 15:26:56;;;;;;;;;;;17.20;99.90;;;;;;5074848;28;952;-59
2021/10/04 15:29:22;;;;;;;;;;;17.20;99.90;;;;;;5075029;28;794;-59
2021/10/04 15:31:49;;;;;;;;;;;17.10;99.90;;;;;;5074681;28;880;-59
2021/10/04 15:34:17;;;;;;;;;;;17.10;99.90;;;;;;5074603;28;860;-59
2021/10/04 15:36:43;;;;;;;;;;;17.10;99.90;;;;;;5057834;28;1451;-59
2021/10/04 15:39:10;;;;;;;;;;;17.10;99.90;;;;;;5058065;28;840;-59
2021/10/04 15:41:41;;;;;;;;;;;17.10;99.90;;;;;;5074268;28;1949;-59
2021/10/04 15:44:07;;;;;;;;;;;17.00;99.90;;;;;;5058982;28;873;-59
2021/10/04 15:46:35;;;;;;;;;;;17.00;99.90;;;;;;5074457;28;739;-66
2021/10/04 15:49:01;;;;;;;;;;;17.00;99.90;;;;;;5074435;28;1015;-66
2021/10/04 15:51:27;;;;;;;;;;;17.00;99.90;;;;;;5074234;28;856;-60
2021/10/04 15:53:52;;;;;;;;;;;17.00;99.90;;;;;;5090976;28;927;-59
2021/10/04 15:56:20;;;;;;;;;;;17.00;99.90;;;;;;5098299;28;962;-60
2021/10/04 15:58:46;;;;;;;;;;;17.00;99.90;;;;;;5116815;28;831;-66
2021/10/04 16:01:15;;;;;;;;;;;17.00;99.90;;;;;;5116820;28;1917;-66
2021/10/04 16:03:42;;;;;;;;;;;16.90;99.90;;;;;;5116502;28;864;-59
2021/10/04 16:06:08;;;;;;;;;;;16.90;99.90;;;;;;5116668;28;792;-66
2021/10/04 16:08:36;;;;;;;;;;;16.90;99.90;;;;;;5114908;28;1003;-66
2021/10/04 16:11:04;;;;;;;;;;;16.80;99.90;;;;;;5116528;28;860;-60
2021/10/04 16:13:30;;;;;;;;;;;16.90;99.90;;;;;;5116503;28;761;-59
2021/10/04 16:15:55;;;;;;;;;;;16.90;99.90;;;;;;5115998;28;1218;-59
2021/10/04 16:18:21;;;;;;;;;;;16.80;99.90;;;;;;5116145;28;849;-59
2021/10/04 16:20:48;;;;;;;;;;;16.80;99.90;;;;;;5116382;28;1954;-59
2021/10/04 16:23:14;;;;;;;;;;;16.80;99.90;;;;;;5116384;28;855;-59
2021/10/04 16:25:41;;;;;;;;;;;16.80;99.90;;;;;;5116341;28;813;-60
2021/10/04 16:28:08;;;;;;;;;;;16.80;99.90;;;;;;5115920;28;739;-59
2021/10/04 16:30:33;;;;;;;;;;;16.70;99.90;;;;;;5114775;28;929;-59
2021/10/04 16:32:59;;;;;;;;;;;16.70;99.90;;;;;;5116105;28;853;-59
2021/10/04 16:35:26;;;;;;;;;;;16.70;99.90;;;;;;5116295;28;1561;-66
2021/10/04 16:37:52;;;;;;;;;;;16.70;99.90;;;;;;5116181;28;824;-66
2021/10/04 16:40:17;;;;;;;;;;;16.70;99.90;;;;;;5116127;28;1902;-66
2021/10/04 16:42:45;;;;;;;;;;;16.70;99.90;;;;;;5134558;28;1213;-66
2021/10/04 16:45:13;;;;;;;;;;;16.60;99.90;;;;;;5136691;28;899;-66
2021/10/04 16:47:38;;;;;;;;;;;16.60;99.90;;;;;;5118902;28;870;-66
2021/10/04 16:50:07;;;;;;;;;;;16.60;99.90;;;;;;5136737;28;736;-66
2021/10/04 16:52:34;;;;;;;;;;;16.60;99.90;;;;;;5136626;28;815;-65
2021/10/04 16:55:01;;;;;;;;;;;16.60;99.90;;;;;;5084216;28;931;-66
2021/10/04 16:57:27;;;;;;;;;;;16.50;99.90;;;;;;5136845;28;882;-66
2021/10/04 16:59:52;;;;;;;;;;;16.50;99.90;;;;;;5136448;28;1905;-66
2021/10/04 17:02:18;;;;;;;;;;;16.50;99.90;;;;;;5136404;28;858;-66
2021/10/04 17:04:44;;;;;;;;;;;16.50;99.90;;;;;;5118503;28;754;-66
2021/10/04 17:07:09;;;;;;;;;;;16.50;99.90;;;;;;5131326;28;1402;-66
2021/10/04 17:09:36;;;;;;;;;;;16.50;99.90;;;;;;5136646;28;890;-66
2021/10/04 17:12:04;;;;;;;;;;;16.40;99.90;;;;;;5136508;28;862;-66
2021/10/04 17:14:31;;;;;;;;;;;16.40;99.90;;;;;;5084372;28;856;-66
2021/10/04 17:16:59;;;;;;;;;;;16.40;99.90;;;;;;5136448;28;816;-66
2021/10/04 17:19:27;;;;;;;;;;;16.30;99.90;;;;;;5135922;28;911;-66
2021/10/04 17:21:53;;;;;;;;;;;16.40;99.90;;;;;;5136170;28;1901;-66
2021/10/04 17:24:18;;;;;;;;;;;16.30;99.90;;;;;;5099940;28;1078;-67
2021/10/04 17:26:46;;;;;;;;;;;16.40;99.90;;;;;;5100998;27;1015;-66
2021/10/04 17:29:12;;;;;;;;;;;16.40;99.90;;;;;;5131672;27;1286;-66
2021/10/04 17:31:38;;;;;;;;;;;16.50;99.90;;;;;;5130939;27;1029;-65
2021/10/04 17:34:05;;;;;;;;;;;16.60;99.90;;;;;;5121430;27;969;-64
2021/10/04 17:36:30;;;;;;;;;;;16.50;99.90;;;;;;5135181;27;960;-66
2021/10/04 17:38:56;;;;;;;;;;;16.70;99.90;;;;;;5139154;27;1237;-65
2021/10/04 17:41:22;;;;;;;;;;;17.00;99.90;;;;;;5136599;27;1964;-64
2021/10/04 17:43:48;;;;;;;;;;;17.30;99.90;;;;;;5133771;27;1128;-63
2021/10/04 17:46:14;;;;;;;;;;;17.70;99.90;;;;;;5128687;27;1255;-64
2021/10/04 17:48:41;;;;;;;;;;;17.90;99.90;;;;;;5131236;27;1327;-64
2021/10/04 17:51:07;;;;;;;;;;;17.90;99.90;;;;;;5113494;27;1350;-65
2021/10/04 17:53:34;;;;;;;;;;;17.90;99.90;;;;;;5124876;27;1382;-67
2021/10/04 17:56:00;;;;;;;;;;;17.90;99.90;;;;;;5129507;27;1401;-65
2021/10/04 17:58:25;;;;;;;;;;;17.80;99.90;;;;;;5127915;27;1441;-64
2021/10/04 18:00:52;;;;;;;;;;;17.80;99.90;;;;;;5126794;27;1968;-62
2021/10/04 18:03:19;;;;;;;;;;;17.90;99.90;;;;;;5122414;27;1291;-64
2021/10/04 18:05:45;;;;;;;;;;;17.80;99.90;;;;;;5118361;27;1181;-62
2021/10/04 18:08:12;;;;;;;;;;;17.70;99.90;;;;;;5128954;27;1271;-61
2021/10/04 18:10:41;;;;;;;;;;;17.70;99.90;;;;;;5126525;27;1391;-60
2021/10/04 18:13:09;;;;;;;;;;;17.70;99.90;;;;;;5089738;27;1127;-63
2021/10/04 18:15:37;;;;;;;;;;;17.70;99.90;;;;;;5133468;27;1322;-62
2021/10/04 18:18:05;;;;;;;;;;;17.80;99.90;;;;;;5128973;27;1200;-62
2021/10/04 18:20:32;;;;;;;;;;;17.80;99.90;;;;;;5130689;27;1906;-62
2021/10/04 18:23:15;;;;;;;;;;;17.80;99.90;;;;;;5122007;27;1351;-62
2021/10/04 18:25:42;;;;;;;;;;;17.80;99.90;;;;;;5131581;27;1174;-65
2021/10/04 18:28:09;;;;;;;;;;;17.80;99.90;;;;;;5137318;27;859;-62
2021/10/04 18:30:37;;;;;;;;;;;17.80;99.90;;;;;;5086278;27;1088;-61
2021/10/04 18:33:03;;;;;;;;;;;17.80;99.90;;;;;;5136767;27;1083;-61
2021/10/04 18:35:30;;;;;;;;;;;17.80;99.90;;;;;;5136501;27;988;-67
2021/10/04 18:37:57;;;;;;;;;;;17.80;99.90;;;;;;5137983;27;1151;-61
2021/10/04 18:40:26;;;;;;;;;;;17.70;99.90;;;;;;5127819;27;1989;-61
2021/10/04 18:42:51;;;;;;;;;;;17.70;99.90;;;;;;5136800;27;1201;-59
2021/10/04 18:45:20;;;;;;;;;;;17.70;99.90;;;;;;5131532;27;1271;-59
2021/10/04 18:47:48;;;;;;;;;;;17.80;99.90;;;;;;5090555;27;1395;-59
2021/10/04 18:50:16;;;;;;;;;;;17.70;99.90;;;;;;5126860;27;1208;-59
2021/10/04 18:52:42;;;;;;;;;;;17.70;99.90;;;;;;5088208;27;1315;-64
2021/10/04 18:55:07;;;;;;;;;;;17.70;99.90;;;;;;5133666;27;1171;-60
2021/10/04 18:57:33;;;;;;;;;;;17.80;99.90;;;;;;5130066;27;1320;-65
2021/10/04 19:11:50;;;;;;;;;;;25.40;99.90;;;;;;5068634;27;1569;-45
2021/10/04 19:14:17;;;;;;;;;;;24.40;99.90;;;;;;5067297;28;1521;-45
2021/10/04 19:16:44;;;;;;;;;;;21.10;99.90;;;;;;5068821;28;1168;-45
2021/10/04 19:19:10;;;;;;;;;;;19.70;99.90;;;;;;5068666;28;1364;-45
2021/10/04 19:21:35;;;;;;;;;;;18.90;99.90;;;;;;5066151;28;1368;-45
2021/10/04 19:24:01;;;;;;;;;;;18.50;99.90;;;;;;5067367;28;1343;-45
2021/10/04 19:26:26;;;;;;;;;;;18.30;99.90;;;;;;5068651;28;1360;-45
2021/10/04 19:28:52;;;;;;;;;;;18.20;99.90;;;;;;5068697;28;1411;-45
2021/10/04 19:31:17;;;;;;;;;;;18.10;99.90;;;;;;5068156;28;1971;-45
2021/10/04 19:33:44;;;;;;;;;;;18.10;99.90;;;;;;5062855;28;1292;-45
2021/10/04 19:36:09;;;;;;;;;;;18.10;99.90;;;;;;5064320;28;1137;-45
2021/10/04 19:38:35;;;;;;;;;;;18.10;99.90;;;;;;5063855;28;1360;-45
2021/10/04 19:41:01;;;;;;;;;;;18.00;99.90;;;;;;5067795;28;1564;-45
2021/10/04 19:43:26;;;;;;;;;;;18.00;99.90;;;;;;5069042;28;1379;-45
2021/10/04 19:45:52;;;;;;;;;;;18.00;99.90;;;;;;5068459;28;1364;-45
2021/10/04 19:48:18;;;;;;;;;;;18.00;99.90;;;;;;5068452;28;1458;-45
2021/10/04 19:50:43;;;;;;;;;;;18.00;99.90;;;;;;5065478;28;1909;-45
2021/10/04 19:53:18;;;;;;;;;;;18.00;99.90;;;;;;5067073;28;1221;-45
2021/10/04 19:55:44;;;;;;;;;;;18.00;99.90;;;;;;5069756;28;1228;-45
2021/10/04 19:58:10;;;;;;;;;;;18.00;99.90;;;;;;5067919;28;1367;-45
2021/10/04 20:00:35;;;;;;;;;;;18.00;99.90;;;;;;5067681;28;1423;-45
2021/10/04 20:03:01;;;;;;;;;;;18.00;99.90;;;;;;5068313;28;1219;-45
2021/10/04 20:05:27;;;;;;;;;;;18.00;99.90;;;;;;5064700;28;1265;-45
2021/10/04 20:07:52;;;;;;;;;;;18.00;99.90;;;;;;5069498;28;1217;-45
2021/10/04 20:10:17;;;;;;;;;;;18.00;99.90;;;;;;5067588;28;1906;-45
2021/10/04 20:12:43;;;;;;;;;;;18.00;99.90;;;;;;5075079;28;1022;-45
2021/10/04 20:15:09;;;;;;;;;;;17.90;99.90;;;;;;5073847;28;931;-45
2021/10/04 20:17:34;;;;;;;;;;;17.90;99.90;;;;;;5083891;28;1224;-45
2021/10/04 20:20:00;;;;;;;;;;;17.90;99.90;;;;;;5086403;28;1355;-45
2021/10/04 20:22:26;;;;;;;;;;;17.90;99.90;;;;;;5077168;28;1117;-45
2021/10/04 20:25:00;;;;;;;;;;;17.90;99.90;;;;;;5075383;28;1530;-45
2021/10/04 20:27:25;;;;;;;;;;;17.90;99.90;;;;;;5072525;28;1355;-45
2021/10/04 20:29:51;;;;;;;;;;;17.90;99.90;;;;;;5063483;28;1898;-45
2021/10/04 20:32:16;;;;;;;;;;;17.90;99.90;;;;;;5062411;28;1081;-45
2021/10/04 20:34:42;;;;;;;;;;;18.00;99.90;;;;;;5061206;28;1149;-45
2021/10/04 20:37:08;;;;;;;;;;;17.90;99.90;;;;;;5012362;28;1368;-49
2021/10/04 20:39:34;;;;;;;;;;;18.10;99.90;;;;;;5064654;28;1029;-46
2021/10/04 20:42:00;;;;;;;;;;;18.20;99.90;;;;;;5065323;28;1023;-45
2021/10/04 20:44:27;;;;;;;;;;;18.20;99.90;;;;;;5063936;28;1309;-45
2021/10/04 20:46:52;;;;;;;;;;;18.40;99.90;;;;;;5076006;28;1129;-45
2021/10/04 20:49:18;;;;;;;;;;;18.60;99.90;;;;;;5077610;28;832;-46
2021/10/04 20:51:44;;;;;;;;;;;18.70;99.90;;;;;;5077324;28;1906;-46
2021/10/04 20:54:10;;;;;;;;;;;18.80;99.90;;;;;;5077639;28;729;-45
2021/10/04 20:56:36;;;;;;;;;;;18.80;99.90;;;;;;5077535;28;912;-45
2021/10/04 20:59:02;;;;;;;;;;;18.90;99.90;;;;;;5077351;28;781;-45
2021/10/04 21:01:28;;;;;;;;;;;18.90;99.90;;;;;;5076643;28;1204;-46
2021/10/04 21:03:53;;;;;;;;;;;18.90;99.90;;;;;;5063054;28;1410;-46
2021/10/04 21:06:24;;;;;;;;;;;18.90;99.90;;;;;;5071332;28;857;-46
2021/10/04 21:08:50;;;;;;;;;;;19.00;99.90;;;;;;5076997;28;788;-46
2021/10/04 21:11:16;;;;;;;;;;;19.00;99.90;;;;;;5076454;28;1914;-46
2021/10/04 21:13:41;;;;;;;;;;;18.90;99.90;;;;;;5072933;28;1328;-45
2021/10/04 21:16:07;;;;;;;;;;;18.80;99.90;;;;;;5065839;28;1327;-45
2021/10/04 21:18:33;;;;;;;;;;;18.80;99.90;;;;;;5046600;28;2300;-46
2021/10/04 21:20:59;;;;;;;;;;;18.70;99.90;;;;;;5061128;28;1190;-49
2021/10/04 21:23:24;;;;;;;;;;;18.20;99.90;;;;;;5057669;28;813;-49
2021/10/04 21:25:50;;;;;;;;;;;17.60;99.90;;;;;;5057964;28;1028;-50
2021/10/04 21:28:15;;;;;;;;;;;17.30;99.90;;;;;;5059800;28;1167;-50
2021/10/04 21:30:41;;;;;;;;;;;17.10;99.90;;;;;;5066252;28;1955;-50
2021/10/04 21:33:07;;;;;;;;;;;16.80;99.90;;;;;;5070289;28;1459;-50
2021/10/04 21:35:33;;;;;;;;;;;16.80;99.90;;;;;;5059884;28;1335;-50
2021/10/04 21:37:58;;;;;;;;;;;17.00;99.90;;;;;;5057276;28;758;-50
2021/10/04 21:40:24;;;;;;;;;;;17.10;99.90;;;;;;5057564;28;735;-48
2021/10/04 21:42:49;;;;;;;;;;;17.20;99.90;;;;;;5057412;28;751;-48
2021/10/04 21:45:15;;;;;;;;;;;17.20;99.90;;;;;;5057140;28;939;-50
2021/10/04 21:47:40;;;;;;;;;;;17.20;99.90;;;;;;5070204;28;1053;-49
2021/10/04 21:50:07;;;;;;;;;;;17.20;99.90;;;;;;5057006;28;1902;-49
2021/10/04 21:52:32;;;;;;;;;;;17.20;99.90;;;;;;5057135;28;754;-50
2021/10/04 21:54:58;;;;;;;;;;;17.20;99.90;;;;;;5057001;28;773;-50
2021/10/04 21:57:27;;;;;;;;;;;17.20;99.90;;;;;;5056968;28;765;-49
2021/10/04 22:00:15;;;;;;;;;;;17.10;99.90;;;;;;5057044;28;765;-50
2021/10/04 22:13:18;;;;;;;;;;;17.00;99.90;;;;;;5076346;28;747;-50
2021/10/04 22:15:44;;;;;;;;;;;16.90;99.90;;;;;;5075657;28;864;-50
2021/10/04 22:18:09;;;;;;;;;;;16.90;99.90;;;;;;5076125;28;855;-50
2021/10/04 22:20:35;;;;;;;;;;;16.90;99.90;;;;;;5058236;28;756;-48
2021/10/04 22:23:00;;;;;;;;;;;16.90;99.90;;;;;;5075769;28;748;-48
2021/10/04 22:25:26;;;;;;;;;;;16.90;99.90;;;;;;5055254;28;1294;-50
2021/10/04 22:27:51;;;;;;;;;;;16.90;99.90;;;;;;5066289;28;1211;-49
2021/10/04 22:30:17;;;;;;;;;;;16.80;99.90;;;;;;5066903;28;1910;-49
2021/10/04 22:32:43;;;;;;;;;;;16.80;99.90;;;;;;5071076;28;1325;-50
2021/10/04 22:35:08;;;;;;;;;;;16.80;99.90;;;;;;5066407;28;1230;-45
2021/10/04 22:37:34;;;;;;;;;;;16.80;99.90;;;;;;5072253;28;1289;-45
2021/10/04 22:39:59;;;;;;;;;;;16.80;99.90;;;;;;5056229;28;789;-45
2021/10/04 22:42:25;;;;;;;;;;;16.80;99.90;;;;;;5056487;28;753;-45
2021/10/04 22:44:50;;;;;;;;;;;16.80;99.90;;;;;;5055930;28;962;-45
2021/10/04 22:47:16;;;;;;;;;;;16.80;99.90;;;;;;5068189;28;845;-45
2021/10/04 22:49:41;;;;;;;;;;;16.80;99.90;;;;;;5074812;28;1902;-45
2021/10/04 22:52:07;;;;;;;;;;;16.70;99.90;;;;;;5075330;28;777;-45
2021/10/04 22:54:32;;;;;;;;;;;16.70;99.90;;;;;;5075640;28;796;-49
2021/10/04 22:56:58;;;;;;;;;;;16.70;99.90;;;;;;5075229;28;797;-50
2021/10/04 22:59:23;;;;;;;;;;;16.70;99.90;;;;;;5075545;28;1257;-50
2021/10/04 23:01:49;;;;;;;;;;;16.70;99.90;;;;;;5058637;28;1176;-48
2021/10/04 23:04:14;;;;;;;;;;;16.60;99.90;;;;;;5055946;28;729;-49
2021/10/04 23:06:40;;;;;;;;;;;16.60;99.90;;;;;;5055654;28;840;-50
2021/10/04 23:09:05;;;;;;;;;;;16.60;99.90;;;;;;5055990;28;738;-49
2021/10/04 23:11:31;;;;;;;;;;;16.60;99.90;;;;;;5060531;28;1973;-49
2021/10/04 23:13:56;;;;;;;;;;;16.60;99.90;;;;;;5060547;28;872;-49
2021/10/04 23:16:50;;;;;;;;;;;16.60;99.90;;;;;;5042948;28;837;-49
2021/10/04 23:19:15;;;;;;;;;;;16.60;99.90;;;;;;5074947;28;1010;-49
2021/10/04 23:21:41;;;;;;;;;;;16.50;99.90;;;;;;5075077;28;848;-49
2021/10/04 23:24:07;;;;;;;;;;;16.50;99.90;;;;;;5060230;28;956;-50
2021/10/04 23:26:33;;;;;;;;;;;16.50;99.90;;;;;;5055441;28;765;-49
2021/10/04 23:28:58;;;;;;;;;;;16.50;99.90;;;;;;5056009;28;750;-50
2021/10/04 23:31:24;;;;;;;;;;;16.50;99.90;;;;;;5055821;28;1901;-49
2021/10/04 23:33:49;;;;;;;;;;;16.50;99.90;;;;;;5055827;28;886;-48
2021/10/04 23:36:15;;;;;;;;;;;16.40;99.90;;;;;;5056000;28;868;-50
2021/10/04 23:38:40;;;;;;;;;;;16.40;99.90;;;;;;5055804;28;816;-49
2021/10/04 23:41:06;;;;;;;;;;;16.40;99.90;;;;;;5055717;28;766;-49
2021/10/04 23:43:32;;;;;;;;;;;16.40;99.90;;;;;;5055533;28;793;-50
2021/10/04 23:45:57;;;;;;;;;;;16.40;99.90;;;;;;5057152;28;873;-50
2021/10/04 23:48:23;;;;;;;;;;;16.40;99.90;;;;;;5074780;28;813;-49
2021/10/04 23:50:49;;;;;;;;;;;16.40;99.90;;;;;;5074829;28;1910;-48
2021/10/04 23:53:14;;;;;;;;;;;16.40;99.90;;;;;;5075117;28;819;-48
2021/10/04 23:55:40;;;;;;;;;;;16.40;99.90;;;;;;5074700;28;830;-49
2021/10/04 23:58:05;;;;;;;;;;;16.40;99.90;;;;;;5077578;28;974;-48
